createdAt,value
2022-08-14T00:02:02.258Z,61.50
2022-08-14T00:04:35.458Z,61.70
2022-08-14T00:07:11.161Z,61.90
2022-08-14T00:09:55.584Z,62.00
2022-08-14T00:12:33.507Z,62.30
2022-08-14T00:15:09.550Z,62.60
2022-08-14T00:17:47.503Z,62.70
2022-08-14T00:20:23.713Z,62.80
2022-08-14T00:22:57.374Z,62.80
2022-08-14T00:25:41.819Z,62.80
2022-08-14T00:28:15.199Z,62.80
2022-08-14T00:30:47.475Z,63.10
2022-08-14T00:33:16.655Z,63.30
2022-08-14T00:36:37.002Z,63.50
2022-08-14T00:38:35.401Z,63.90
2022-08-14T00:41:05.993Z,64.00
2022-08-14T00:43:34.378Z,64.10
2022-08-14T00:46:08.257Z,64.40
2022-08-14T00:48:51.546Z,64.80
2022-08-14T00:51:23.725Z,65.10
2022-08-14T00:54:03.575Z,65.40
2022-08-14T00:56:39.112Z,65.50
2022-08-14T00:59:07.213Z,65.70
2022-08-14T01:01:37.801Z,66.00
2022-08-14T01:04:09.821Z,66.40
2022-08-14T01:07:00.782Z,66.30
2022-08-14T01:09:33.276Z,66.80
2022-08-14T01:12:03.367Z,67.20
2022-08-14T01:14:32.280Z,67.60
2022-08-14T01:17:00.384Z,67.70
2022-08-14T01:19:46.633Z,68.00
2022-08-14T01:22:18.972Z,68.20
2022-08-14T01:24:48.329Z,68.50
2022-08-14T01:27:22.354Z,69.20
2022-08-14T01:30:03.347Z,69.30
2022-08-14T01:32:35.425Z,69.20
2022-08-14T01:35:17.791Z,69.40
2022-08-14T01:38:00.432Z,69.40
2022-08-14T01:40:37.247Z,69.70
2022-08-14T01:43:18.448Z,69.90
2022-08-14T01:45:57.995Z,70.40
2022-08-14T01:48:37.651Z,70.70
2022-08-14T01:51:19.982Z,71.00
2022-08-14T01:53:55.322Z,71.20
2022-08-14T01:56:37.492Z,71.20
2022-08-14T01:59:10.248Z,71.70
2022-08-14T02:01:57.936Z,72.00
2022-08-14T02:04:54.702Z,72.30
2022-08-14T02:07:34.368Z,72.60
2022-08-14T02:10:13.094Z,73.00
2022-08-14T02:12:44.406Z,73.30
2022-08-14T02:15:21.141Z,73.50
2022-08-14T02:17:49.890Z,73.40
2022-08-14T02:20:20.008Z,73.50
2022-08-14T02:22:54.636Z,73.90
2022-08-14T02:25:24.908Z,74.60
2022-08-14T02:28:23.365Z,74.90
2022-08-14T02:30:46.282Z,75.40
2022-08-14T02:33:14.410Z,75.30
2022-08-14T02:35:52.838Z,75.70
2022-08-14T02:38:30.596Z,76.10
2022-08-14T02:41:08.903Z,76.30
2022-08-14T02:43:46.375Z,76.40
2022-08-14T02:46:20.785Z,76.50
2022-08-14T02:49:04.110Z,76.50
2022-08-14T02:51:35.030Z,76.80
2022-08-14T02:54:06.773Z,77.10
2022-08-14T02:57:15.860Z,77.10
2022-08-14T02:59:33.633Z,77.50
2022-08-14T03:02:03.134Z,77.30
2022-08-14T03:04:31.472Z,77.30
2022-08-14T03:07:07.903Z,77.40
2022-08-14T03:09:41.941Z,77.50
2022-08-14T03:12:31.338Z,77.50
2022-08-14T03:15:03.655Z,77.90
2022-08-14T03:17:40.738Z,78.20
2022-08-14T03:20:11.962Z,78.10
2022-08-14T03:22:42.232Z,78.10
2022-08-14T03:25:12.116Z,78.50
2022-08-14T03:27:48.438Z,78.70
2022-08-14T03:30:39.777Z,78.90
2022-08-14T03:33:11.927Z,79.40
2022-08-14T03:36:00.227Z,79.70
2022-08-14T03:39:13.666Z,79.80
2022-08-14T03:41:23.170Z,79.90
2022-08-14T03:43:57.806Z,79.80
2022-08-14T03:46:52.463Z,79.80
2022-08-14T03:49:24.415Z,79.90
2022-08-14T03:51:57.555Z,79.70
2022-08-14T03:54:26.323Z,79.50
2022-08-14T03:56:54.922Z,79.50
2022-08-14T03:59:24.480Z,79.50
2022-08-14T04:02:01.229Z,79.40
2022-08-14T04:04:30.340Z,79.60
2022-08-14T04:06:59.983Z,79.50
2022-08-14T04:09:28.893Z,80.20
2022-08-14T04:11:58.219Z,80.60
2022-08-14T04:14:29.496Z,81.30
2022-08-14T04:16:57.615Z,81.80
2022-08-14T04:19:28.094Z,82.20
2022-08-14T04:22:03.308Z,82.40
2022-08-14T04:24:39.108Z,82.70
2022-08-14T04:27:09.708Z,82.70
2022-08-14T04:29:42.433Z,82.80
2022-08-14T04:33:02.615Z,82.80
2022-08-14T04:35:00.256Z,82.70
2022-08-14T04:37:46.210Z,82.60
2022-08-14T04:40:40.414Z,83.00
2022-08-14T04:43:26.602Z,83.50
2022-08-14T04:46:09.375Z,84.00
2022-08-14T04:48:43.671Z,84.30
2022-08-14T04:51:25.854Z,84.60
2022-08-14T04:53:56.130Z,84.70
2022-08-14T04:56:34.120Z,85.10
2022-08-14T04:59:09.937Z,85.00
2022-08-14T05:01:47.978Z,85.50
2022-08-14T05:04:20.259Z,85.70
2022-08-14T05:06:49.899Z,85.90
2022-08-14T05:09:22.634Z,86.10
2022-08-14T05:11:51.430Z,86.30
2022-08-14T05:14:45.802Z,86.70
2022-08-14T05:17:12.135Z,87.10
2022-08-14T05:19:44.905Z,87.20
2022-08-14T05:22:28.562Z,87.20
2022-08-14T05:24:56.671Z,87.60
2022-08-14T05:27:24.721Z,88.00
2022-08-14T05:29:55.408Z,88.20
2022-08-14T05:32:28.182Z,88.30
2022-08-14T05:34:58.905Z,88.20
2022-08-14T05:37:29.667Z,88.20
2022-08-14T05:40:01.993Z,88.30
2022-08-14T05:42:33.996Z,88.60
2022-08-14T05:45:04.203Z,88.60
2022-08-14T05:47:39.178Z,88.70
2022-08-14T05:50:17.535Z,88.70
2022-08-14T05:52:50.092Z,88.80
2022-08-14T05:55:22.093Z,88.80
2022-08-14T05:57:55.064Z,88.80
2022-08-14T06:00:34.885Z,88.80
2022-08-14T06:03:10.878Z,88.80
2022-08-14T06:05:39.909Z,88.70
2022-08-14T06:08:31.161Z,88.50
2022-08-14T06:11:07.253Z,88.30
2022-08-14T06:13:41.142Z,88.40
2022-08-14T06:16:17.824Z,88.40
2022-08-14T06:18:52.670Z,88.20
2022-08-14T06:21:22.533Z,87.90
2022-08-14T06:23:50.916Z,87.80
2022-08-14T06:26:20.495Z,87.80
2022-08-14T06:28:52.131Z,87.70
2022-08-14T06:31:22.682Z,87.50
2022-08-14T06:35:11.219Z,87.50
2022-08-14T06:36:40.328Z,87.50
2022-08-14T06:39:10.533Z,87.20
2022-08-14T06:41:57.650Z,87.10
2022-08-14T06:44:32.793Z,86.80
2022-08-14T06:47:02.785Z,86.60
2022-08-14T06:49:40.013Z,86.60
2022-08-14T06:52:16.348Z,86.50
2022-08-14T06:54:45.014Z,86.60
2022-08-14T06:57:14.011Z,86.40
2022-08-14T06:59:42.444Z,86.40
2022-08-14T07:02:29.382Z,86.20
2022-08-14T07:05:20.974Z,86.00
2022-08-14T07:07:51.731Z,85.70
2022-08-14T07:10:22.151Z,85.60
2022-08-14T07:13:01.405Z,85.40
2022-08-14T07:15:33.900Z,85.10
2022-08-14T07:18:03.741Z,85.00
2022-08-14T07:20:38.651Z,85.00
2022-08-14T07:23:09.331Z,84.80
2022-08-14T07:25:42.296Z,84.50
2022-08-14T07:28:21.240Z,84.40
2022-08-14T07:30:50.709Z,84.10
2022-08-14T07:33:24.710Z,84.00
2022-08-14T07:36:01.415Z,83.90
2022-08-14T07:38:35.759Z,83.80
2022-08-14T07:41:12.066Z,83.70
2022-08-14T07:43:53.024Z,83.30
2022-08-14T07:46:28.567Z,83.00
2022-08-14T07:48:58.229Z,82.60
2022-08-14T07:51:34.350Z,82.50
2022-08-14T07:54:10.939Z,82.80
2022-08-14T07:56:47.935Z,82.60
2022-08-14T07:59:21.809Z,82.50
2022-08-14T08:02:19.674Z,82.20
2022-08-14T08:04:54.219Z,82.10
2022-08-14T08:07:30.072Z,81.80
2022-08-14T08:10:00.940Z,81.60
2022-08-14T08:12:32.591Z,81.50
2022-08-14T08:15:07.329Z,81.20
2022-08-14T08:17:38.299Z,81.00
2022-08-14T08:20:12.098Z,80.70
2022-08-14T08:22:43.344Z,80.40
2022-08-14T08:25:17.932Z,80.10
2022-08-14T08:27:59.051Z,80.30
2022-08-14T08:30:27.999Z,80.00
2022-08-14T08:33:01.044Z,79.90
2022-08-14T08:35:46.875Z,79.40
2022-08-14T08:39:18.382Z,79.30
2022-08-14T08:41:11.850Z,78.80
2022-08-14T08:43:45.901Z,78.90
2022-08-14T08:46:18.658Z,78.80
2022-08-14T08:51:24.990Z,77.90
2022-08-14T08:54:02.332Z,77.80
2022-08-14T08:56:42.271Z,77.90
2022-08-14T08:59:21.991Z,77.50
2022-08-14T09:01:56.387Z,77.40
2022-08-14T09:04:27.157Z,77.40
2022-08-14T09:07:09.962Z,76.80
2022-08-14T09:09:54.403Z,76.70
2022-08-14T09:12:31.553Z,76.50
2022-08-14T09:15:02.329Z,76.20
2022-08-14T09:17:31.017Z,75.60
2022-08-14T09:20:01.793Z,75.20
2022-08-14T09:22:34.991Z,75.10
2022-08-14T09:25:07.840Z,74.50
2022-08-14T09:27:37.566Z,74.50
2022-08-14T09:30:31.442Z,74.20
2022-08-14T09:33:12.594Z,74.00
2022-08-14T09:35:56.629Z,73.50
2022-08-14T09:38:33.490Z,73.30
2022-08-14T09:41:14.576Z,72.40
2022-08-14T09:43:53.027Z,72.20
2022-08-14T09:46:25.748Z,71.70
2022-08-14T09:48:59.780Z,71.50
2022-08-14T09:51:32.588Z,71.20
2022-08-14T09:54:18.882Z,71.10
2022-08-14T09:56:56.694Z,70.80
2022-08-14T09:59:28.255Z,69.20
2022-08-14T10:01:57.370Z,68.40
2022-08-14T10:04:33.624Z,68.10
2022-08-14T10:07:06.208Z,67.00
2022-08-14T10:09:59.491Z,66.70
2022-08-14T10:12:46.222Z,66.40
2022-08-14T10:15:18.109Z,66.90
2022-08-14T10:17:46.843Z,66.40
2022-08-14T10:20:40.399Z,66.70
2022-08-14T10:23:15.870Z,66.10
2022-08-14T10:25:47.424Z,65.30
2022-08-14T10:29:03.409Z,64.30
2022-08-14T10:31:19.759Z,65.50
2022-08-14T10:34:00.958Z,64.20
2022-08-14T10:36:36.821Z,64.20
2022-08-14T10:39:17.034Z,64.30
2022-08-14T10:41:49.362Z,64.40
2022-08-14T10:44:29.597Z,63.70
2022-08-14T10:47:40.875Z,63.70
2022-08-14T10:50:01.095Z,63.50
2022-08-14T10:52:33.964Z,63.20
2022-08-14T10:55:14.001Z,63.00
2022-08-14T10:57:51.233Z,62.20
2022-08-14T11:00:30.056Z,61.80
2022-08-14T11:03:09.439Z,62.10
2022-08-14T11:05:43.472Z,62.10
2022-08-14T11:08:14.572Z,61.90
2022-08-14T11:10:46.048Z,61.80
2022-08-14T11:13:21.241Z,62.10
2022-08-14T11:15:56.146Z,62.50
2022-08-14T11:18:32.124Z,61.70
2022-08-14T11:21:06.767Z,61.70
2022-08-14T11:23:39.898Z,61.20
2022-08-14T11:26:12.427Z,61.40
2022-08-14T11:28:46.905Z,61.40
2022-08-14T11:31:22.131Z,61.20
2022-08-14T11:33:51.853Z,60.80
2022-08-14T11:36:35.193Z,59.80
2022-08-14T11:39:33.758Z,59.90
2022-08-14T11:42:57.143Z,60.00
2022-08-14T11:44:56.630Z,60.00
2022-08-14T11:47:35.657Z,59.90
2022-08-14T11:50:34.095Z,60.30
2022-08-14T11:53:07.083Z,60.50
2022-08-14T11:55:39.264Z,60.20
2022-08-14T11:58:10.592Z,60.40
2022-08-14T12:00:48.574Z,60.80
2022-08-14T12:03:27.149Z,60.90
2022-08-14T12:06:18.078Z,60.90
2022-08-14T12:09:00.316Z,60.70
2022-08-14T12:11:43.579Z,60.30
2022-08-14T12:14:30.044Z,60.50
2022-08-14T12:17:12.187Z,60.60
2022-08-14T12:19:50.959Z,60.30
2022-08-14T12:22:29.726Z,60.40
2022-08-14T12:24:58.842Z,60.60
2022-08-14T12:27:41.271Z,60.70
2022-08-14T12:30:11.311Z,60.90
2022-08-14T12:32:44.643Z,61.20
2022-08-14T12:35:14.530Z,61.50
2022-08-14T12:37:49.287Z,61.70
2022-08-14T12:40:21.268Z,61.10
2022-08-14T12:42:54.003Z,61.10
2022-08-14T12:45:33.872Z,60.80
2022-08-14T12:48:21.423Z,60.50
2022-08-14T12:50:53.785Z,61.20
2022-08-14T12:53:22.440Z,59.70
2022-08-14T12:56:22.088Z,58.80
2022-08-14T12:58:51.978Z,59.10
2022-08-14T13:01:23.232Z,59.50
2022-08-14T13:03:53.351Z,59.90
2022-08-14T13:06:28.875Z,58.90
2022-08-14T13:09:00.014Z,58.20
2022-08-14T13:11:37.663Z,58.70
2022-08-14T13:14:17.406Z,58.20
2022-08-14T13:16:50.644Z,58.10
2022-08-14T13:19:20.598Z,57.80
2022-08-14T13:22:05.105Z,57.50
2022-08-14T13:24:40.075Z,56.80
2022-08-14T13:27:12.386Z,56.40
2022-08-14T13:29:46.940Z,56.60
2022-08-14T13:32:16.096Z,55.80
2022-08-14T13:34:46.062Z,55.30
2022-08-14T13:37:17.148Z,55.10
2022-08-14T13:39:57.014Z,55.20
2022-08-14T13:42:30.762Z,54.80
2022-08-14T13:45:02.359Z,54.50
2022-08-14T13:47:33.172Z,54.20
2022-08-14T13:50:04.903Z,54.10
2022-08-14T13:52:52.830Z,53.40
2022-08-14T13:55:25.625Z,53.10
2022-08-14T13:58:04.346Z,53.50
2022-08-14T14:00:52.887Z,52.30
2022-08-14T14:03:23.729Z,52.00
2022-08-14T14:05:55.011Z,51.60
2022-08-14T14:08:46.355Z,51.10
2022-08-14T14:11:15.724Z,51.30
2022-08-14T14:13:45.102Z,51.60
2022-08-14T14:16:15.116Z,51.10
2022-08-14T14:18:52.287Z,51.20
2022-08-14T14:21:22.006Z,51.30
2022-08-14T14:23:52.367Z,50.50
2022-08-14T14:26:23.999Z,50.60
2022-08-14T14:28:56.521Z,50.60
2022-08-14T14:31:29.927Z,50.70
2022-08-14T14:34:01.027Z,50.80
2022-08-14T14:36:36.574Z,50.40
2022-08-14T14:39:07.996Z,50.50
2022-08-14T14:41:43.722Z,50.80
2022-08-14T14:44:15.922Z,51.10
2022-08-14T14:46:49.747Z,51.50
2022-08-14T14:49:21.544Z,52.30
2022-08-14T14:51:51.579Z,52.40
2022-08-14T14:54:30.070Z,50.60
2022-08-14T14:57:02.550Z,50.60
2022-08-14T14:59:33.559Z,50.00
2022-08-14T15:02:07.801Z,48.30
2022-08-14T15:04:38.181Z,47.60
2022-08-14T15:07:07.310Z,45.90
2022-08-14T15:09:36.987Z,45.30
2022-08-14T15:12:34.243Z,44.40
2022-08-14T15:14:57.893Z,43.50
2022-08-14T15:17:41.695Z,43.00
2022-08-14T15:20:17.164Z,44.10
2022-08-14T15:22:58.547Z,41.90
2022-08-14T15:25:31.775Z,41.50
2022-08-14T15:28:00.826Z,42.30
2022-08-14T15:30:32.186Z,42.90
2022-08-14T15:33:01.302Z,43.20
2022-08-14T15:35:34.104Z,43.00
2022-08-14T15:38:07.834Z,43.70
2022-08-14T15:40:41.017Z,43.70
2022-08-14T15:43:12.883Z,45.90
2022-08-14T15:45:42.246Z,46.20
2022-08-14T15:48:21.949Z,48.50
2022-08-14T15:50:51.634Z,49.80
2022-08-14T15:53:20.488Z,50.70
2022-08-14T15:55:50.115Z,48.90
2022-08-14T15:58:21.760Z,49.00
2022-08-14T16:01:07.443Z,50.10
2022-08-14T16:03:40.847Z,50.30
2022-08-14T16:06:15.448Z,52.30
2022-08-14T16:08:50.345Z,51.10
2022-08-14T16:11:32.723Z,52.40
2022-08-14T16:14:01.800Z,52.20
2022-08-14T16:16:48.121Z,51.60
2022-08-14T16:19:20.161Z,51.80
2022-08-14T16:22:01.709Z,52.70
2022-08-14T16:25:02.361Z,51.90
2022-08-14T16:27:39.062Z,52.70
2022-08-14T16:30:20.337Z,52.50
2022-08-14T16:32:55.725Z,54.00
2022-08-14T16:35:59.738Z,51.60
2022-08-14T16:38:46.009Z,52.90
2022-08-14T16:41:26.376Z,51.80
2022-08-14T16:44:02.604Z,51.80
2022-08-14T16:46:34.886Z,52.10
2022-08-14T16:49:06.154Z,52.80
2022-08-14T16:51:38.344Z,51.60
2022-08-14T16:54:20.703Z,53.00
2022-08-14T16:57:16.966Z,52.30
2022-08-14T16:59:52.396Z,52.60
2022-08-14T17:02:39.217Z,52.20
2022-08-14T17:05:22.172Z,52.40
2022-08-14T17:08:33.428Z,53.00
2022-08-14T17:11:09.930Z,52.60
2022-08-14T17:13:59.468Z,53.10
2022-08-14T17:16:30.952Z,52.90
2022-08-14T17:19:03.564Z,51.90
2022-08-14T17:21:37.594Z,52.80
2022-08-14T17:24:57.433Z,52.60
2022-08-14T17:26:59.968Z,53.10
2022-08-14T17:29:34.268Z,53.10
2022-08-14T17:32:29.266Z,54.10
2022-08-14T17:35:01.930Z,53.20
2022-08-14T17:37:34.245Z,54.20
2022-08-14T17:40:15.437Z,54.00
2022-08-14T17:43:02.064Z,55.20
2022-08-14T17:45:46.639Z,54.50
2022-08-14T17:49:14.904Z,54.30
2022-08-14T17:51:23.468Z,54.40
2022-08-14T17:54:02.380Z,54.30
2022-08-14T17:56:32.218Z,54.50
2022-08-14T17:59:04.061Z,54.90
2022-08-14T18:01:37.387Z,54.80
2022-08-14T18:04:24.676Z,55.30
2022-08-14T18:07:16.433Z,54.60
2022-08-14T18:09:57.026Z,55.00
2022-08-14T18:12:32.861Z,55.80
2022-08-14T18:15:16.698Z,55.00
2022-08-14T18:17:53.161Z,54.80
2022-08-14T18:21:40.213Z,55.10
2022-08-14T18:23:14.209Z,56.00
2022-08-14T18:25:49.316Z,56.20
2022-08-14T18:28:51.945Z,57.00
2022-08-14T18:31:42.062Z,56.20
2022-08-14T18:34:30.632Z,55.90
2022-08-14T18:37:17.584Z,55.80
2022-08-14T18:40:02.285Z,56.40
2022-08-14T18:42:44.102Z,56.60
2022-08-14T18:45:15.581Z,56.60
2022-08-14T18:50:52.711Z,57.90
2022-08-14T18:53:25.454Z,57.80
2022-08-14T18:56:09.667Z,58.30
2022-08-14T18:58:48.842Z,58.00
2022-08-14T19:01:29.511Z,58.30
2022-08-14T19:04:00.857Z,58.30
2022-08-14T19:06:56.321Z,58.70
2022-08-14T19:09:57.759Z,58.70
2022-08-14T19:13:05.348Z,59.10
2022-08-14T19:15:42.936Z,59.10
2022-08-14T19:18:28.207Z,59.70
2022-08-14T19:20:59.406Z,59.70
2022-08-14T19:23:42.059Z,59.90
2022-08-14T19:26:35.637Z,60.00
2022-08-14T19:29:25.576Z,60.20
2022-08-14T19:31:59.046Z,60.00
2022-08-14T19:34:40.447Z,60.30
2022-08-14T19:37:52.143Z,60.10
2022-08-14T19:40:34.030Z,60.40
2022-08-14T19:43:06.679Z,60.40
2022-08-14T19:45:39.084Z,60.80
2022-08-14T19:48:15.580Z,61.00
2022-08-14T19:50:46.196Z,61.40
2022-08-14T19:53:16.993Z,61.40
2022-08-14T19:55:59.300Z,61.40
2022-08-14T19:58:54.711Z,61.60
2022-08-14T20:01:36.916Z,61.30
2022-08-14T20:04:46.447Z,61.60
2022-08-14T20:06:57.578Z,61.70
2022-08-14T20:11:06.267Z,61.80
2022-08-14T20:12:28.983Z,62.40
2022-08-14T20:15:08.781Z,62.50
2022-08-14T20:17:40.508Z,62.70
2022-08-14T20:20:20.917Z,62.80
2022-08-14T20:23:11.349Z,63.00
2022-08-14T20:25:56.390Z,63.20
2022-08-14T20:28:32.970Z,63.40
2022-08-14T20:31:17.834Z,63.70
2022-08-14T20:34:06.610Z,64.70
2022-08-14T20:36:39.824Z,64.60
2022-08-14T20:39:15.081Z,64.10
2022-08-14T20:41:51.281Z,65.10
2022-08-14T20:44:40.993Z,65.50
2022-08-14T20:47:16.177Z,65.90
2022-08-14T20:49:45.252Z,67.90
2022-08-14T20:52:18.532Z,65.50
2022-08-14T20:54:50.685Z,66.40
2022-08-14T20:57:19.719Z,67.00
2022-08-14T20:59:53.590Z,66.30
2022-08-14T21:02:49.840Z,65.90
2022-08-14T21:05:33.262Z,65.90
2022-08-14T21:08:08.166Z,66.10
2022-08-14T21:10:44.471Z,66.60
2022-08-14T21:13:27.278Z,66.60
2022-08-14T21:16:04.675Z,67.70
2022-08-14T21:18:56.292Z,66.70
2022-08-14T21:21:41.506Z,67.10
2022-08-14T21:24:38.715Z,67.70
2022-08-14T21:27:12.195Z,67.60
2022-08-14T21:29:53.501Z,67.30
2022-08-14T21:32:35.730Z,67.80
2022-08-14T21:35:09.874Z,67.80
2022-08-14T21:37:45.981Z,67.80
2022-08-14T21:40:41.125Z,68.60
2022-08-14T21:43:05.728Z,68.60
2022-08-14T21:45:37.328Z,68.10
2022-08-14T21:48:09.225Z,67.80
2022-08-14T21:51:02.007Z,68.40
2022-08-14T21:53:36.241Z,68.40
2022-08-14T21:56:38.271Z,68.40
2022-08-14T21:59:11.550Z,69.30
2022-08-14T22:02:00.122Z,69.00
2022-08-14T22:04:40.599Z,68.60
2022-08-14T22:07:16.739Z,68.50
2022-08-14T22:09:54.623Z,70.00
2022-08-14T22:12:47.204Z,69.30
2022-08-14T22:15:14.734Z,70.80
2022-08-14T22:17:45.526Z,70.00
2022-08-14T22:20:21.211Z,69.70
2022-08-14T22:22:56.207Z,70.30
2022-08-14T22:25:33.748Z,69.20
2022-08-14T22:28:05.612Z,68.60
2022-08-14T22:30:35.074Z,70.20
2022-08-14T22:33:04.654Z,69.90
2022-08-14T22:35:33.589Z,69.00
2022-08-14T22:38:35.812Z,69.90
2022-08-14T22:41:15.121Z,69.30
2022-08-14T22:43:41.631Z,69.70
2022-08-14T22:46:15.015Z,69.70
2022-08-14T22:48:49.435Z,69.90
2022-08-14T22:51:20.579Z,70.30
2022-08-14T22:53:53.107Z,70.20
2022-08-14T22:56:29.294Z,70.50
2022-08-14T22:59:00.189Z,70.30
2022-08-14T23:01:56.574Z,70.50
2022-08-14T23:04:34.721Z,70.60
2022-08-14T23:07:22.189Z,70.40
2022-08-14T23:09:56.953Z,70.20
2022-08-14T23:12:31.503Z,71.70
2022-08-14T23:15:00.949Z,71.20
2022-08-14T23:17:39.215Z,72.20
2022-08-14T23:20:18.796Z,71.50
2022-08-14T23:22:51.194Z,70.30
2022-08-14T23:25:57.683Z,70.40
2022-08-14T23:28:33.691Z,70.10
2022-08-14T23:31:08.556Z,70.10
2022-08-14T23:33:42.019Z,70.50
2022-08-14T23:36:31.410Z,70.40
2022-08-14T23:39:02.107Z,70.30
2022-08-14T23:41:46.399Z,70.60
2022-08-14T23:44:23.712Z,69.30
2022-08-14T23:46:56.570Z,69.80
2022-08-14T23:49:28.705Z,69.10
2022-08-14T23:52:50.401Z,69.40
2022-08-14T23:55:06.614Z,69.20
2022-08-14T23:57:44.168Z,70.20
